sensor_id;sensor_type;location;lat;lon;timestamp;pressure;altitude;pressure_sealevel;temperature;humidity
51829;BME280;37881;48.024;8.774;2022-12-07T00:01:07;93804.75;;;0.75;100.00
51829;BME280;37881;48.024;8.774;2022-12-07T00:03:35;93806.22;;;0.92;100.00
51829;BME280;37881;48.024;8.774;2022-12-07T00:06:04;93805.88;;;0.74;100.00
51829;BME280;37881;48.024;8.774;2022-12-07T00:08:32;93800.94;;;0.60;100.00
51829;BME280;37881;48.024;8.774;2022-12-07T00:11:11;93798.75;;;0.85;100.00
51829;BME280;37881;48.024;8.774;2022-12-07T00:13:39;93793.97;;;0.98;100.00
51829;BME280;37881;48.024;8.774;2022-12-07T00:16:12;93803.31;;;0.81;100.00
51829;BME280;37881;48.024;8.774;2022-12-07T00:18:39;93794.34;;;0.77;100.00
51829;BME280;37881;48.024;8.774;2022-12-07T00:21:10;93789.88;;;0.85;100.00
51829;BME280;37881;48.024;8.774;2022-12-07T00:23:38;93792.34;;;0.74;100.00
51829;BME280;37881;48.024;8.774;2022-12-07T00:26:16;93785.06;;;0.55;100.00
51829;BME280;37881;48.024;8.774;2022-12-07T00:28:53;93795.78;;;0.71;100.00
51829;BME280;37881;48.024;8.774;2022-12-07T00:31:23;93793.09;;;0.71;100.00
51829;BME280;37881;48.024;8.774;2022-12-07T00:33:50;93791.91;;;0.52;100.00
51829;BME280;37881;48.024;8.774;2022-12-07T00:36:19;93786.59;;;0.56;100.00
51829;BME280;37881;48.024;8.774;2022-12-07T00:38:52;93791.00;;;0.84;100.00
51829;BME280;37881;48.024;8.774;2022-12-07T00:41:21;93785.53;;;0.80;100.00
51829;BME280;37881;48.024;8.774;2022-12-07T00:43:49;93785.88;;;0.98;100.00
51829;BME280;37881;48.024;8.774;2022-12-07T00:46:16;93786.03;;;0.86;100.00
51829;BME280;37881;48.024;8.774;2022-12-07T00:48:44;93782.63;;;0.89;100.00
51829;BME280;37881;48.024;8.774;2022-12-07T00:51:12;93779.03;;;1.04;100.00
51829;BME280;37881;48.024;8.774;2022-12-07T00:53:40;93782.22;;;1.10;100.00
51829;BME280;37881;48.024;8.774;2022-12-07T00:56:21;93781.63;;;1.20;100.00
51829;BME280;37881;48.024;8.774;2022-12-07T00:58:51;93782.13;;;1.26;100.00
51829;BME280;37881;48.024;8.774;2022-12-07T01:01:18;93780.13;;;1.23;100.00
51829;BME280;37881;48.024;8.774;2022-12-07T01:03:44;93783.56;;;1.19;100.00
51829;BME280;37881;48.024;8.774;2022-12-07T01:06:15;93779.28;;;1.18;100.00
51829;BME280;37881;48.024;8.774;2022-12-07T01:08:42;93786.75;;;1.25;100.00
51829;BME280;37881;48.024;8.774;2022-12-07T01:11:12;93774.78;;;1.26;100.00
51829;BME280;37881;48.024;8.774;2022-12-07T01:13:40;93776.72;;;1.26;100.00
51829;BME280;37881;48.024;8.774;2022-12-07T01:16:07;93780.97;;;1.27;100.00
51829;BME280;37881;48.024;8.774;2022-12-07T01:18:35;93778.28;;;1.27;100.00
51829;BME280;37881;48.024;8.774;2022-12-07T01:21:08;93781.94;;;1.15;100.00
51829;BME280;37881;48.024;8.774;2022-12-07T01:23:36;93783.47;;;0.93;100.00
51829;BME280;37881;48.024;8.774;2022-12-07T01:26:07;93784.09;;;1.06;100.00
51829;BME280;37881;48.024;8.774;2022-12-07T01:28:34;93775.84;;;0.98;100.00
51829;BME280;37881;48.024;8.774;2022-12-07T01:31:06;93780.47;;;0.98;100.00
51829;BME280;37881;48.024;8.774;2022-12-07T01:33:35;93781.06;;;0.68;100.00
51829;BME280;37881;48.024;8.774;2022-12-07T01:36:20;93786.44;;;0.68;100.00
51829;BME280;37881;48.024;8.774;2022-12-07T01:38:48;93783.69;;;0.65;100.00
51829;BME280;37881;48.024;8.774;2022-12-07T01:41:15;93786.84;;;0.67;100.00
51829;BME280;37881;48.024;8.774;2022-12-07T01:46:33;93788.88;;;0.34;100.00
51829;BME280;37881;48.024;8.774;2022-12-07T01:49:01;93787.16;;;0.46;100.00
51829;BME280;37881;48.024;8.774;2022-12-07T01:51:28;93789.38;;;0.59;100.00
51829;BME280;37881;48.024;8.774;2022-12-07T01:53:55;93782.34;;;0.55;100.00
51829;BME280;37881;48.024;8.774;2022-12-07T01:56:25;93784.75;;;0.60;100.00
51829;BME280;37881;48.024;8.774;2022-12-07T01:58:54;93781.00;;;0.65;100.00
51829;BME280;37881;48.024;8.774;2022-12-07T02:01:22;93775.44;;;0.77;100.00
51829;BME280;37881;48.024;8.774;2022-12-07T02:03:49;93778.41;;;0.91;100.00
51829;BME280;37881;48.024;8.774;2022-12-07T02:06:19;93771.94;;;0.76;100.00
51829;BME280;37881;48.024;8.774;2022-12-07T02:08:47;93781.47;;;0.70;100.00
51829;BME280;37881;48.024;8.774;2022-12-07T02:11:15;93778.50;;;0.95;100.00
51829;BME280;37881;48.024;8.774;2022-12-07T02:13:43;93779.03;;;1.04;100.00
51829;BME280;37881;48.024;8.774;2022-12-07T02:19:20;93784.84;;;1.06;100.00
51829;BME280;37881;48.024;8.774;2022-12-07T02:22:14;93784.91;;;0.87;100.00
51829;BME280;37881;48.024;8.774;2022-12-07T02:25:13;93782.06;;;0.79;100.00
51829;BME280;37881;48.024;8.774;2022-12-07T02:27:51;93783.09;;;0.94;100.00
51829;BME280;37881;48.024;8.774;2022-12-07T02:30:24;93782.97;;;1.07;100.00
51829;BME280;37881;48.024;8.774;2022-12-07T02:33:01;93781.53;;;1.13;100.00
51829;BME280;37881;48.024;8.774;2022-12-07T02:35:51;93783.16;;;0.98;100.00
51829;BME280;37881;48.024;8.774;2022-12-07T02:38:40;93784.94;;;0.90;100.00
51829;BME280;37881;48.024;8.774;2022-12-07T02:43:45;93774.53;;;0.89;100.00
51829;BME280;37881;48.024;8.774;2022-12-07T02:46:21;93784.59;;;0.72;100.00
51829;BME280;37881;48.024;8.774;2022-12-07T02:48:50;93774.28;;;0.78;100.00
51829;BME280;37881;48.024;8.774;2022-12-07T02:51:18;93781.44;;;0.67;100.00
51829;BME280;37881;48.024;8.774;2022-12-07T02:53:45;93779.84;;;0.66;100.00
51829;BME280;37881;48.024;8.774;2022-12-07T02:56:21;93784.28;;;0.54;100.00
51829;BME280;37881;48.024;8.774;2022-12-07T03:01:48;93778.00;;;0.50;100.00
51829;BME280;37881;48.024;8.774;2022-12-07T03:10:27;93787.88;;;0.43;100.00
51829;BME280;37881;48.024;8.774;2022-12-07T03:13:05;93782.63;;;0.30;100.00
51829;BME280;37881;48.024;8.774;2022-12-07T03:18:01;93779.19;;;0.33;100.00
51829;BME280;37881;48.024;8.774;2022-12-07T03:20:29;93783.69;;;0.45;100.00
51829;BME280;37881;48.024;8.774;2022-12-07T03:22:59;93781.22;;;0.36;100.00
51829;BME280;37881;48.024;8.774;2022-12-07T03:25:26;93775.09;;;0.39;100.00
51829;BME280;37881;48.024;8.774;2022-12-07T03:28:01;93776.22;;;0.38;100.00
51829;BME280;37881;48.024;8.774;2022-12-07T03:33:11;93773.38;;;0.31;100.00
51829;BME280;37881;48.024;8.774;2022-12-07T03:35:52;93769.56;;;0.32;100.00
51829;BME280;37881;48.024;8.774;2022-12-07T03:38:30;93772.66;;;0.54;100.00
51829;BME280;37881;48.024;8.774;2022-12-07T03:41:09;93771.38;;;0.48;100.00
51829;BME280;37881;48.024;8.774;2022-12-07T03:43:38;93772.53;;;0.27;100.00
51829;BME280;37881;48.024;8.774;2022-12-07T03:49:13;93771.41;;;0.28;100.00
51829;BME280;37881;48.024;8.774;2022-12-07T03:52:01;93764.84;;;0.29;100.00
51829;BME280;37881;48.024;8.774;2022-12-07T03:54:34;93770.31;;;0.33;100.00
51829;BME280;37881;48.024;8.774;2022-12-07T03:57:04;93770.94;;;0.26;100.00
51829;BME280;37881;48.024;8.774;2022-12-07T03:59:32;93773.63;;;0.26;100.00
51829;BME280;37881;48.024;8.774;2022-12-07T04:02:05;93781.22;;;0.36;100.00
51829;BME280;37881;48.024;8.774;2022-12-07T04:04:33;93768.47;;;0.37;100.00
51829;BME280;37881;48.024;8.774;2022-12-07T04:07:00;93772.81;;;0.42;100.00
51829;BME280;37881;48.024;8.774;2022-12-07T04:09:27;93772.72;;;0.38;100.00
51829;BME280;37881;48.024;8.774;2022-12-07T04:11:53;93774.44;;;0.46;100.00
51829;BME280;37881;48.024;8.774;2022-12-07T04:14:20;93771.47;;;0.71;100.00
51829;BME280;37881;48.024;8.774;2022-12-07T04:17:05;93764.56;;;0.54;100.00
51829;BME280;37881;48.024;8.774;2022-12-07T04:19:33;93760.75;;;0.55;100.00
51829;BME280;37881;48.024;8.774;2022-12-07T04:22:01;93758.13;;;0.58;100.00
51829;BME280;37881;48.024;8.774;2022-12-07T04:24:28;93760.81;;;0.58;100.00
51829;BME280;37881;48.024;8.774;2022-12-07T04:26:55;93760.88;;;0.43;100.00
51829;BME280;37881;48.024;8.774;2022-12-07T04:29:23;93758.31;;;0.50;100.00
51829;BME280;37881;48.024;8.774;2022-12-07T04:31:50;93757.69;;;0.37;100.00
51829;BME280;37881;48.024;8.774;2022-12-07T04:34:17;93759.91;;;0.51;100.00
51829;BME280;37881;48.024;8.774;2022-12-07T04:36:46;93760.47;;;0.41;100.00
51829;BME280;37881;48.024;8.774;2022-12-07T04:39:31;93758.31;;;0.50;100.00
51829;BME280;37881;48.024;8.774;2022-12-07T04:41:59;93762.28;;;0.56;100.00
51829;BME280;37881;48.024;8.774;2022-12-07T04:44:27;93759.91;;;0.51;100.00
51829;BME280;37881;48.024;8.774;2022-12-07T04:46:55;93758.66;;;0.48;100.00
51829;BME280;37881;48.024;8.774;2022-12-07T04:49:24;93758.03;;;0.55;100.00
51829;BME280;37881;48.024;8.774;2022-12-07T04:51:51;93761.25;;;0.61;100.00
51829;BME280;37881;48.024;8.774;2022-12-07T04:54:18;93758.66;;;0.48;100.00
51829;BME280;37881;48.024;8.774;2022-12-07T04:56:45;93766.00;;;0.48;100.00
51829;BME280;37881;48.024;8.774;2022-12-07T04:59:13;93760.59;;;0.48;100.00
51829;BME280;37881;48.024;8.774;2022-12-07T05:01:40;93757.28;;;0.54;100.00
51829;BME280;37881;48.024;8.774;2022-12-07T05:04:07;93769.19;;;0.53;100.00
51829;BME280;37881;48.024;8.774;2022-12-07T05:06:34;93765.78;;;0.56;100.00
51829;BME280;37881;48.024;8.774;2022-12-07T05:09:02;93771.13;;;0.53;100.00
51829;BME280;37881;48.024;8.774;2022-12-07T05:11:29;93772.19;;;0.68;100.00
51829;BME280;37881;48.024;8.774;2022-12-07T05:14:19;93759.59;;;0.75;100.00
51829;BME280;37881;48.024;8.774;2022-12-07T05:16:48;93765.41;;;0.58;100.00
51829;BME280;37881;48.024;8.774;2022-12-07T05:19:16;93768.78;;;0.71;100.00
51829;BME280;37881;48.024;8.774;2022-12-07T05:21:44;93767.53;;;0.68;100.00
51829;BME280;37881;48.024;8.774;2022-12-07T05:24:12;93767.94;;;0.67;100.00
51829;BME280;37881;48.024;8.774;2022-12-07T05:26:40;93760.69;;;0.71;100.00
51829;BME280;37881;48.024;8.774;2022-12-07T05:29:07;93763.38;;;0.71;100.00
51829;BME280;37881;48.024;8.774;2022-12-07T05:31:34;93763.84;;;0.76;100.00
51829;BME280;37881;48.024;8.774;2022-12-07T05:34:01;93769.03;;;0.85;100.00
51829;BME280;37881;48.024;8.774;2022-12-07T05:36:28;93777.16;;;0.85;100.00
51829;BME280;37881;48.024;8.774;2022-12-07T05:38:57;93767.19;;;0.89;100.00
51829;BME280;37881;48.024;8.774;2022-12-07T05:41:24;93763.16;;;0.79;99.14
51829;BME280;37881;48.024;8.774;2022-12-07T05:44:10;93775.81;;;0.75;99.06
51829;BME280;37881;48.024;8.774;2022-12-07T05:46:37;93773.53;;;0.77;98.42
51829;BME280;37881;48.024;8.774;2022-12-07T05:49:03;93773.75;;;0.69;98.71
51829;BME280;37881;48.024;8.774;2022-12-07T05:51:30;93770.63;;;0.47;99.08
51829;BME280;37881;48.024;8.774;2022-12-07T05:53:57;93768.34;;;0.49;100.00
51829;BME280;37881;48.024;8.774;2022-12-07T05:56:24;93776.94;;;0.55;99.77
51829;BME280;37881;48.024;8.774;2022-12-07T05:58:50;93771.41;;;0.67;99.45
51829;BME280;37881;48.024;8.774;2022-12-07T06:01:37;93774.38;;;0.62;98.64
51829;BME280;37881;48.024;8.774;2022-12-07T06:04:04;93772.41;;;0.59;98.42
51829;BME280;37881;48.024;8.774;2022-12-07T06:06:30;93772.09;;;0.64;98.01
51829;BME280;37881;48.024;8.774;2022-12-07T06:08:57;93777.22;;;0.50;97.77
51829;BME280;37881;48.024;8.774;2022-12-07T06:11:24;93779.72;;;0.39;98.77
51829;BME280;37881;48.024;8.774;2022-12-07T06:14:09;93770.75;;;0.35;99.16
51829;BME280;37881;48.024;8.774;2022-12-07T06:16:36;93774.94;;;0.52;98.37
51829;BME280;37881;48.024;8.774;2022-12-07T06:19:02;93773.47;;;0.54;97.83
51829;BME280;37881;48.024;8.774;2022-12-07T06:21:29;93769.13;;;0.50;97.00
51829;BME280;37881;48.024;8.774;2022-12-07T06:23:56;93771.59;;;0.39;97.61
51829;BME280;37881;48.024;8.774;2022-12-07T06:26:23;93772.72;;;0.18;96.79
51829;BME280;37881;48.024;8.774;2022-12-07T06:28:49;93775.41;;;-0.17;100.00
51829;BME280;37881;48.024;8.774;2022-12-07T06:31:16;93773.94;;;-0.30;100.00
51829;BME280;37881;48.024;8.774;2022-12-07T06:33:43;93771.66;;;-0.12;100.00
51829;BME280;37881;48.024;8.774;2022-12-07T06:36:10;93769.94;;;-0.21;100.00
51829;BME280;37881;48.024;8.774;2022-12-07T06:38:37;93781.53;;;-0.36;100.00
51829;BME280;37881;48.024;8.774;2022-12-07T06:41:04;93780.03;;;-0.17;100.00
51829;BME280;37881;48.024;8.774;2022-12-07T06:43:30;93776.59;;;-0.50;100.00
51829;BME280;37881;48.024;8.774;2022-12-07T06:45:57;93781.19;;;-0.50;100.00
51829;BME280;37881;48.024;8.774;2022-12-07T06:48:24;93777.88;;;-0.28;100.00
51829;BME280;37881;48.024;8.774;2022-12-07T06:50:51;93786.00;;;-0.08;100.00
51829;BME280;37881;48.024;8.774;2022-12-07T06:53:21;93781.94;;;-0.18;100.00
51829;BME280;37881;48.024;8.774;2022-12-07T06:55:48;93784.44;;;-0.09;100.00
51829;BME280;37881;48.024;8.774;2022-12-07T06:58:16;93775.94;;;-0.27;100.00
51829;BME280;37881;48.024;8.774;2022-12-07T07:00:43;93780.13;;;-0.30;100.00
51829;BME280;37881;48.024;8.774;2022-12-07T07:03:11;93773.22;;;-0.11;100.00
51829;BME280;37881;48.024;8.774;2022-12-07T07:05:38;93784.88;;;-0.07;100.00
51829;BME280;37881;48.024;8.774;2022-12-07T07:08:04;93791.47;;;-0.05;100.00
51829;BME280;37881;48.024;8.774;2022-12-07T07:10:48;93796.88;;;-0.05;100.00
51829;BME280;37881;48.024;8.774;2022-12-07T07:13:15;93797.50;;;-0.11;100.00
51829;BME280;37881;48.024;8.774;2022-12-07T07:15:42;93794.19;;;-0.21;100.00
51829;BME280;37881;48.024;8.774;2022-12-07T07:18:09;93787.06;;;-0.29;100.00
51829;BME280;37881;48.024;8.774;2022-12-07T07:20:39;93790.28;;;-0.23;100.00
51829;BME280;37881;48.024;8.774;2022-12-07T07:23:06;93799.53;;;-0.24;100.00
51829;BME280;37881;48.024;8.774;2022-12-07T07:25:33;93796.22;;;-0.33;100.00
51829;BME280;37881;48.024;8.774;2022-12-07T07:28:00;93802.81;;;-0.31;100.00
51829;BME280;37881;48.024;8.774;2022-12-07T07:30:27;93802.31;;;-0.36;100.00
51829;BME280;37881;48.024;8.774;2022-12-07T07:32:58;93803.69;;;-0.27;100.00
51829;BME280;37881;48.024;8.774;2022-12-07T07:35:26;93804.22;;;-0.21;100.00
51829;BME280;37881;48.024;8.774;2022-12-07T07:37:52;93793.34;;;-0.25;100.00
51829;BME280;37881;48.024;8.774;2022-12-07T07:40:19;93802.47;;;-0.13;100.00
51829;BME280;37881;48.024;8.774;2022-12-07T07:42:53;93803.53;;;-0.18;100.00
51829;BME280;37881;48.024;8.774;2022-12-07T07:45:22;93804.53;;;-0.07;100.00
51829;BME280;37881;48.024;8.774;2022-12-07T07:47:49;93805.16;;;0.03;100.00
51829;BME280;37881;48.024;8.774;2022-12-07T07:50:17;93802.28;;;-0.05;100.00
51829;BME280;37881;48.024;8.774;2022-12-07T07:52:44;93806.13;;;-0.06;100.00
51829;BME280;37881;48.024;8.774;2022-12-07T07:55:11;93807.66;;;-0.05;99.94
51829;BME280;37881;48.024;8.774;2022-12-07T07:57:39;93813.22;;;0.03;99.29
51829;BME280;37881;48.024;8.774;2022-12-07T08:00:11;93806.00;;;0.07;98.59
51829;BME280;37881;48.024;8.774;2022-12-07T08:02:39;93810.00;;;0.13;98.21
51829;BME280;37881;48.024;8.774;2022-12-07T08:05:06;93810.06;;;0.16;98.02
51829;BME280;37881;48.024;8.774;2022-12-07T08:07:33;93802.66;;;0.13;97.28
51829;BME280;37881;48.024;8.774;2022-12-07T08:10:00;93804.69;;;0.16;97.00
51829;BME280;37881;48.024;8.774;2022-12-07T08:12:27;93806.09;;;0.30;96.46
51829;BME280;37881;48.024;8.774;2022-12-07T08:14:54;93818.75;;;0.26;95.23
51829;BME280;37881;48.024;8.774;2022-12-07T08:17:21;93810.94;;;0.40;95.50
51829;BME280;37881;48.024;8.774;2022-12-07T08:19:47;93806.31;;;0.56;94.43
51829;BME280;37881;48.024;8.774;2022-12-07T08:22:14;93811.28;;;0.93;94.16
51829;BME280;37881;48.024;8.774;2022-12-07T08:24:41;93811.28;;;1.36;92.69
51829;BME280;37881;48.024;8.774;2022-12-07T08:27:07;93803.84;;;2.02;89.88
51829;BME280;37881;48.024;8.774;2022-12-07T08:29:34;93818.13;;;1.30;90.49
51829;BME280;37881;48.024;8.774;2022-12-07T08:32:01;93822.38;;;2.00;88.98
51829;BME280;37881;48.024;8.774;2022-12-07T08:34:34;93829.00;;;2.29;86.66
51829;BME280;37881;48.024;8.774;2022-12-07T08:37:02;93827.97;;;2.37;85.03
51829;BME280;37881;48.024;8.774;2022-12-07T08:39:29;93837.94;;;2.33;84.86
51829;BME280;37881;48.024;8.774;2022-12-07T08:41:57;93834.63;;;2.44;85.16
51829;BME280;37881;48.024;8.774;2022-12-07T08:44:24;93833.75;;;2.36;84.90
51829;BME280;37881;48.024;8.774;2022-12-07T08:46:55;93827.16;;;2.37;84.61
51829;BME280;37881;48.024;8.774;2022-12-07T08:49:30;93837.84;;;1.76;86.38
51829;BME280;37881;48.024;8.774;2022-12-07T08:51:58;93831.31;;;1.12;91.93
51829;BME280;37881;48.024;8.774;2022-12-07T08:54:25;93833.03;;;0.81;92.10
51829;BME280;37881;48.024;8.774;2022-12-07T08:56:53;93845.63;;;0.38;97.11
51829;BME280;37881;48.024;8.774;2022-12-07T08:59:26;93845.25;;;0.75;94.91
51829;BME280;37881;48.024;8.774;2022-12-07T09:01:54;93837.59;;;1.39;93.08
51829;BME280;37881;48.024;8.774;2022-12-07T09:04:21;93846.22;;;1.68;90.39
51829;BME280;37881;48.024;8.774;2022-12-07T09:06:47;93840.09;;;1.28;90.60
51829;BME280;37881;48.024;8.774;2022-12-07T09:09:15;93840.38;;;0.45;93.62
51829;BME280;37881;48.024;8.774;2022-12-07T09:11:42;93840.69;;;0.24;95.93
51829;BME280;37881;48.024;8.774;2022-12-07T09:14:09;93838.09;;;0.83;94.69
51829;BME280;37881;48.024;8.774;2022-12-07T09:16:35;93844.44;;;1.79;88.39
51829;BME280;37881;48.024;8.774;2022-12-07T09:19:02;93843.38;;;1.84;87.20
51829;BME280;37881;48.024;8.774;2022-12-07T09:21:29;93846.56;;;2.69;84.37
51829;BME280;37881;48.024;8.774;2022-12-07T09:23:56;93840.56;;;2.53;82.21
51829;BME280;37881;48.024;8.774;2022-12-07T09:26:23;93853.25;;;1.49;87.45
51829;BME280;37881;48.024;8.774;2022-12-07T09:28:49;93858.81;;;0.78;89.79
51829;BME280;37881;48.024;8.774;2022-12-07T09:31:16;93855.03;;;1.03;91.24
51829;BME280;37881;48.024;8.774;2022-12-07T09:33:59;93852.09;;;1.50;86.62
51829;BME280;37881;48.024;8.774;2022-12-07T09:36:27;93846.44;;;3.56;80.90
51829;BME280;37881;48.024;8.774;2022-12-07T09:38:54;93839.84;;;2.56;81.97
51829;BME280;37881;48.024;8.774;2022-12-07T09:41:22;93836.44;;;3.27;79.90
51829;BME280;37881;48.024;8.774;2022-12-07T09:43:50;93834.41;;;4.54;74.24
51829;BME280;37881;48.024;8.774;2022-12-07T09:46:19;93823.22;;;5.72;70.30
51829;BME280;37881;48.024;8.774;2022-12-07T09:48:48;93822.81;;;4.60;72.23
51829;BME280;37881;48.024;8.774;2022-12-07T09:51:21;93833.72;;;2.63;77.14
51829;BME280;37881;48.024;8.774;2022-12-07T09:53:53;93826.41;;;3.31;75.23
51829;BME280;37881;48.024;8.774;2022-12-07T09:56:21;93829.44;;;4.08;73.35
51829;BME280;37881;48.024;8.774;2022-12-07T09:58:48;93823.00;;;3.82;73.93
51829;BME280;37881;48.024;8.774;2022-12-07T10:01:18;93828.44;;;2.16;78.24
51829;BME280;37881;48.024;8.774;2022-12-07T10:03:55;93826.66;;;1.12;85.14
51829;BME280;37881;48.024;8.774;2022-12-07T10:06:25;93828.41;;;0.82;88.40
51829;BME280;37881;48.024;8.774;2022-12-07T10:08:51;93819.09;;;0.79;90.07
51829;BME280;37881;48.024;8.774;2022-12-07T10:11:18;93814.75;;;1.83;87.51
51829;BME280;37881;48.024;8.774;2022-12-07T10:13:51;93811.88;;;1.72;85.46
51829;BME280;37881;48.024;8.774;2022-12-07T10:19:17;93813.06;;;3.15;78.94
51829;BME280;37881;48.024;8.774;2022-12-07T10:22:13;93810.72;;;3.13;75.30
51829;BME280;37881;48.024;8.774;2022-12-07T10:24:41;93801.00;;;3.46;73.32
51829;BME280;37881;48.024;8.774;2022-12-07T10:27:26;93798.97;;;3.80;70.75
51829;BME280;37881;48.024;8.774;2022-12-07T10:29:57;93791.44;;;4.11;69.35
51829;BME280;37881;48.024;8.774;2022-12-07T10:32:31;93787.94;;;4.07;68.45
51829;BME280;37881;48.024;8.774;2022-12-07T10:37:47;93784.25;;;4.37;67.48
51829;BME280;37881;48.024;8.774;2022-12-07T10:40:32;93780.94;;;4.06;65.97
51829;BME280;37881;48.024;8.774;2022-12-07T10:43:16;93774.34;;;4.07;66.92
51829;BME280;37881;48.024;8.774;2022-12-07T10:54:23;93771.13;;;4.53;63.13
51829;BME280;37881;48.024;8.774;2022-12-07T11:02:41;93756.09;;;3.52;66.98
51829;BME280;37881;48.024;8.774;2022-12-07T11:07:54;93748.28;;;4.65;62.30
51829;BME280;37881;48.024;8.774;2022-12-07T11:15:24;93740.41;;;4.42;64.76
51829;BME280;37881;48.024;8.774;2022-12-07T11:18:08;93742.28;;;5.26;61.70
51829;BME280;37881;48.024;8.774;2022-12-07T11:21:12;93743.41;;;5.25;59.86
51829;BME280;37881;48.024;8.774;2022-12-07T11:23:46;93737.88;;;4.89;61.89
51829;BME280;37881;48.024;8.774;2022-12-07T11:32:39;93739.63;;;2.93;66.80
51829;BME280;37881;48.024;8.774;2022-12-07T11:37:37;93733.38;;;3.27;67.90
51829;BME280;37881;48.024;8.774;2022-12-07T11:45:52;93731.16;;;2.31;72.52
51829;BME280;37881;48.024;8.774;2022-12-07T11:48:32;93721.41;;;2.56;73.30
51829;BME280;37881;48.024;8.774;2022-12-07T11:51:01;93721.22;;;1.82;75.09
51829;BME280;37881;48.024;8.774;2022-12-07T11:53:40;93716.34;;;3.30;71.08
51829;BME280;37881;48.024;8.774;2022-12-07T11:56:15;93712.16;;;3.88;67.75
51829;BME280;37881;48.024;8.774;2022-12-07T11:58:45;93705.34;;;5.57;65.22
51829;BME280;37881;48.024;8.774;2022-12-07T12:03:48;93698.78;;;7.67;54.11
51829;BME280;37881;48.024;8.774;2022-12-07T12:06:20;93682.91;;;8.37;52.80
51829;BME280;37881;48.024;8.774;2022-12-07T12:15:08;93685.75;;;6.63;55.32
51829;BME280;37881;48.024;8.774;2022-12-07T12:17:50;93675.66;;;6.49;56.19
51829;BME280;37881;48.024;8.774;2022-12-07T12:23:45;93666.22;;;4.27;65.72
51829;BME280;37881;48.024;8.774;2022-12-07T12:26:26;93669.94;;;3.38;67.11
51829;BME280;37881;48.024;8.774;2022-12-07T12:28:57;93671.59;;;4.13;67.56
51829;BME280;37881;48.024;8.774;2022-12-07T12:31:39;93663.53;;;3.13;70.78
51829;BME280;37881;48.024;8.774;2022-12-07T12:34:31;93660.19;;;3.34;70.46
51829;BME280;37881;48.024;8.774;2022-12-07T12:36:58;93663.31;;;2.91;71.90
51829;BME280;37881;48.024;8.774;2022-12-07T12:39:25;93660.16;;;2.86;73.25
51829;BME280;37881;48.024;8.774;2022-12-07T12:41:54;93657.03;;;3.25;72.00
51829;BME280;37881;48.024;8.774;2022-12-07T12:46:55;93666.16;;;2.65;74.38
51829;BME280;37881;48.024;8.774;2022-12-07T12:54:26;93659.78;;;2.87;73.17
51829;BME280;37881;48.024;8.774;2022-12-07T12:57:17;93658.13;;;2.72;71.79
51829;BME280;37881;48.024;8.774;2022-12-07T13:02:30;93659.00;;;2.46;72.55
51829;BME280;37881;48.024;8.774;2022-12-07T13:18:38;93638.78;;;3.22;70.45
51829;BME280;37881;48.024;8.774;2022-12-07T13:28:49;93640.25;;;2.30;72.80
51829;BME280;37881;48.024;8.774;2022-12-07T13:33:50;93620.53;;;3.15;70.54
51829;BME280;37881;48.024;8.774;2022-12-07T13:36:29;93624.47;;;3.80;67.85
51829;BME280;37881;48.024;8.774;2022-12-07T13:41:44;93621.13;;;4.05;66.43
51829;BME280;37881;48.024;8.774;2022-12-07T13:44:13;93615.34;;;4.24;66.22
51829;BME280;37881;48.024;8.774;2022-12-07T13:49:29;93613.44;;;4.28;66.19
51829;BME280;37881;48.024;8.774;2022-12-07T13:52:22;93605.22;;;4.14;67.79
51829;BME280;37881;48.024;8.774;2022-12-07T13:55:01;93604.88;;;4.26;66.90
51829;BME280;37881;48.024;8.774;2022-12-07T13:57:30;93610.34;;;4.30;66.63
51829;BME280;37881;48.024;8.774;2022-12-07T13:59:58;93618.59;;;4.55;63.45
51829;BME280;37881;48.024;8.774;2022-12-07T14:02:33;93614.28;;;4.54;62.83
51829;BME280;37881;48.024;8.774;2022-12-07T14:05:24;93613.44;;;4.32;64.41
51829;BME280;37881;48.024;8.774;2022-12-07T14:07:55;93613.38;;;4.14;64.92
51829;BME280;37881;48.024;8.774;2022-12-07T14:10:34;93609.47;;;4.00;65.85
51829;BME280;37881;48.024;8.774;2022-12-07T14:15:53;93605.53;;;3.91;68.10
51829;BME280;37881;48.024;8.774;2022-12-07T14:18:35;93610.78;;;3.58;68.53
51829;BME280;37881;48.024;8.774;2022-12-07T14:21:05;93607.06;;;3.92;67.71
51829;BME280;37881;48.024;8.774;2022-12-07T14:23:32;93605.34;;;3.55;70.22
51829;BME280;37881;48.024;8.774;2022-12-07T14:26:12;93609.28;;;3.72;69.44
51829;BME280;37881;48.024;8.774;2022-12-07T14:28:42;93606.16;;;3.63;70.58
51829;BME280;37881;48.024;8.774;2022-12-07T14:31:14;93606.66;;;3.24;71.11
51829;BME280;37881;48.024;8.774;2022-12-07T14:33:50;93605.16;;;3.30;71.55
51829;BME280;37881;48.024;8.774;2022-12-07T14:36:17;93608.81;;;3.00;72.29
51829;BME280;37881;48.024;8.774;2022-12-07T14:38:43;93611.94;;;3.02;72.35
51829;BME280;37881;48.024;8.774;2022-12-07T14:41:16;93604.72;;;2.76;73.22
51829;BME280;37881;48.024;8.774;2022-12-07T14:44:11;93610.00;;;2.62;74.66
51829;BME280;37881;48.024;8.774;2022-12-07T14:46:58;93603.00;;;2.57;75.13
51829;BME280;37881;48.024;8.774;2022-12-07T14:49:44;93611.81;;;2.13;77.81
51829;BME280;37881;48.024;8.774;2022-12-07T14:52:23;93610.06;;;2.31;77.36
51829;BME280;37881;48.024;8.774;2022-12-07T14:55:19;93609.84;;;2.10;77.42
51829;BME280;37881;48.024;8.774;2022-12-07T14:57:47;93603.84;;;1.93;77.42
51829;BME280;37881;48.024;8.774;2022-12-07T15:00:15;93614.41;;;2.36;76.51
51829;BME280;37881;48.024;8.774;2022-12-07T15:02:43;93606.84;;;2.18;77.05
51829;BME280;37881;48.024;8.774;2022-12-07T15:05:10;93611.72;;;1.45;80.20
51829;BME280;37881;48.024;8.774;2022-12-07T15:07:43;93617.63;;;1.54;80.60
51829;BME280;37881;48.024;8.774;2022-12-07T15:10:29;93620.22;;;1.20;82.63
51829;BME280;37881;48.024;8.774;2022-12-07T15:12:58;93608.50;;;1.36;82.82
51829;BME280;37881;48.024;8.774;2022-12-07T15:15:44;93610.63;;;1.50;82.42
51829;BME280;37881;48.024;8.774;2022-12-07T15:18:10;93612.03;;;0.90;85.32
51829;BME280;37881;48.024;8.774;2022-12-07T15:20:38;93618.16;;;1.10;84.31
51829;BME280;37881;48.024;8.774;2022-12-07T15:23:05;93617.66;;;1.05;85.23
51829;BME280;37881;48.024;8.774;2022-12-07T15:25:33;93617.22;;;0.99;86.28
51829;BME280;37881;48.024;8.774;2022-12-07T15:28:00;93614.88;;;1.24;84.98